createdAt,value
2022-12-08T00:00:06.127Z,1.04
2022-12-08T00:01:05.650Z,1.04
2022-12-08T00:02:05.951Z,1.04
2022-12-08T00:03:06.113Z,1.04
2022-12-08T00:04:06.132Z,1.04
2022-12-08T00:05:06.612Z,1.04
2022-12-08T00:06:06.365Z,1.04
2022-12-08T00:07:06.525Z,1.04
2022-12-08T00:08:06.726Z,1.04
2022-12-08T00:09:06.783Z,1.04
2022-12-08T00:10:19.147Z,1.04
2022-12-08T00:11:07.066Z,1.04
2022-12-08T00:12:07.242Z,1.04
2022-12-08T00:13:07.383Z,1.04
2022-12-08T00:14:07.543Z,1.04
2022-12-08T00:15:07.615Z,1.04
2022-12-08T00:16:07.815Z,1.04
2022-12-08T00:17:07.986Z,1.04
2022-12-08T00:18:08.021Z,1.04
2022-12-08T00:19:08.222Z,1.04
2022-12-08T00:20:08.317Z,1.04
2022-12-08T00:21:08.419Z,1.04
2022-12-08T00:22:08.601Z,1.04
2022-12-08T00:23:08.676Z,1.04
2022-12-08T00:24:08.845Z,1.04
2022-12-08T00:25:08.968Z,1.04
2022-12-08T00:26:09.133Z,1.04
2022-12-08T00:27:09.286Z,1.04
2022-12-08T00:28:09.381Z,1.04
2022-12-08T00:29:13.164Z,1.04
2022-12-08T00:30:09.698Z,1.04
2022-12-08T00:31:09.834Z,1.04
2022-12-08T00:32:10.639Z,1.04
2022-12-08T00:33:10.152Z,1.04
2022-12-08T00:34:10.322Z,1.04
2022-12-08T00:35:10.419Z,1.04
2022-12-08T00:36:10.578Z,1.04
2022-12-08T00:37:10.717Z,1.04
2022-12-08T00:38:10.863Z,1.04
2022-12-08T00:39:10.993Z,1.04
2022-12-08T00:40:11.111Z,1.04
2022-12-08T00:41:11.267Z,1.04
2022-12-08T00:42:11.416Z,1.04
2022-12-08T00:43:11.570Z,1.04
2022-12-08T00:44:11.721Z,1.04
2022-12-08T00:45:12.596Z,1.04
2022-12-08T00:46:12.231Z,1.04
2022-12-08T00:47:12.247Z,1.04
2022-12-08T00:48:12.375Z,1.04
2022-12-08T00:49:12.532Z,1.04
2022-12-08T00:50:12.688Z,1.04
2022-12-08T00:51:12.859Z,1.04
2022-12-08T00:52:12.940Z,1.04
2022-12-08T00:53:13.082Z,1.04
2022-12-08T00:54:13.237Z,1.04
2022-12-08T00:55:13.385Z,1.04
2022-12-08T00:56:13.530Z,1.04
2022-12-08T00:57:13.686Z,1.04
2022-12-08T00:58:13.842Z,1.04
2022-12-08T00:59:14.007Z,1.04
2022-12-08T01:00:14.677Z,1.04
2022-12-08T01:01:14.344Z,1.04
2022-12-08T01:02:14.392Z,1.04
2022-12-08T01:03:14.602Z,1.04
2022-12-08T01:04:14.699Z,1.04
2022-12-08T01:05:14.847Z,1.04
2022-12-08T01:06:14.995Z,1.04
2022-12-08T01:07:15.155Z,1.04
2022-12-08T01:08:15.441Z,1.04
2022-12-08T01:09:15.471Z,1.04
2022-12-08T01:10:15.615Z,1.04
2022-12-08T01:11:15.696Z,1.04
2022-12-08T01:12:16.389Z,1.04
2022-12-08T01:13:15.979Z,1.04
2022-12-08T01:14:16.164Z,1.04
2022-12-08T01:15:16.889Z,1.04
2022-12-08T01:16:16.492Z,1.04
2022-12-08T01:17:16.507Z,1.04
2022-12-08T01:18:16.679Z,1.04
2022-12-08T01:19:16.830Z,1.04
2022-12-08T01:20:16.984Z,1.04
2022-12-08T01:21:17.116Z,1.04
2022-12-08T01:22:17.222Z,1.04
2022-12-08T01:23:17.326Z,1.04
2022-12-08T01:24:17.477Z,1.04
2022-12-08T01:25:17.652Z,1.04
2022-12-08T01:26:17.801Z,1.04
2022-12-08T01:27:17.931Z,1.04
2022-12-08T01:28:18.076Z,1.04
2022-12-08T01:29:18.234Z,1.04
2022-12-08T01:30:18.941Z,1.04
2022-12-08T01:31:18.569Z,1.04
2022-12-08T01:32:18.647Z,1.04
2022-12-08T01:33:18.787Z,1.04
2022-12-08T01:34:18.937Z,1.04
2022-12-08T01:35:19.091Z,1.04
2022-12-08T01:36:19.257Z,1.04
2022-12-08T01:37:19.424Z,1.04
2022-12-08T01:38:19.555Z,1.04
2022-12-08T01:39:19.710Z,1.04
2022-12-08T01:40:19.848Z,1.04
2022-12-08T01:41:19.953Z,1.04
2022-12-08T01:42:20.137Z,1.04
2022-12-08T01:43:20.259Z,1.04
2022-12-08T01:44:20.451Z,1.04
2022-12-08T01:45:21.107Z,1.04
2022-12-08T01:46:20.777Z,1.04
2022-12-08T01:47:20.859Z,1.04
2022-12-08T01:48:21.065Z,1.04
2022-12-08T01:49:21.164Z,1.04
2022-12-08T01:50:21.314Z,1.04
2022-12-08T01:51:21.420Z,1.04
2022-12-08T01:52:21.562Z,1.04
2022-12-08T01:53:21.719Z,1.04
2022-12-08T01:54:21.869Z,1.04
2022-12-08T01:55:22.022Z,1.04
2022-12-08T01:56:22.171Z,1.04
2022-12-08T01:57:22.340Z,1.04
2022-12-08T01:58:22.493Z,1.04
2022-12-08T01:59:22.627Z,1.04
2022-12-08T02:00:23.386Z,1.04
2022-12-08T02:01:22.941Z,1.04
2022-12-08T02:02:23.141Z,1.04
2022-12-08T02:03:23.178Z,1.04
2022-12-08T02:04:23.335Z,1.04
2022-12-08T02:05:23.483Z,1.04
2022-12-08T02:06:23.645Z,1.04
2022-12-08T02:07:23.793Z,1.04
2022-12-08T02:08:24.013Z,1.04
2022-12-08T02:09:24.092Z,1.04
2022-12-08T02:10:24.198Z,1.04
2022-12-08T02:11:24.343Z,1.04
2022-12-08T02:12:24.497Z,1.04
2022-12-08T02:13:24.646Z,1.04
2022-12-08T02:14:24.811Z,1.04
2022-12-08T02:15:25.516Z,1.04
2022-12-08T02:16:25.056Z,1.04
2022-12-08T02:17:25.115Z,1.04
2022-12-08T02:18:25.261Z,1.04
2022-12-08T02:19:31.333Z,1.04
2022-12-08T02:20:25.522Z,1.04
2022-12-08T02:21:25.605Z,1.04
2022-12-08T02:22:25.766Z,1.04
2022-12-08T02:23:25.915Z,1.04
2022-12-08T02:24:26.025Z,1.04
2022-12-08T02:25:26.173Z,1.04
2022-12-08T02:26:26.280Z,1.04
2022-12-08T02:27:26.434Z,1.04
2022-12-08T02:28:26.577Z,1.04
2022-12-08T02:29:26.731Z,1.04
2022-12-08T02:30:27.550Z,1.04
2022-12-08T02:31:27.093Z,1.04
2022-12-08T02:32:27.127Z,1.04
2022-12-08T02:33:27.287Z,1.04
2022-12-08T02:34:27.439Z,1.04
2022-12-08T02:35:27.590Z,1.04
2022-12-08T02:36:27.691Z,1.04
2022-12-08T02:37:27.839Z,1.04
2022-12-08T02:38:28.003Z,1.04
2022-12-08T02:39:28.149Z,1.04
2022-12-08T02:40:28.244Z,1.04
2022-12-08T02:41:28.386Z,1.04
2022-12-08T02:42:28.565Z,1.04
2022-12-08T02:43:28.689Z,1.04
2022-12-08T02:44:28.853Z,1.04
2022-12-08T02:45:29.520Z,1.04
2022-12-08T02:46:29.200Z,1.04
2022-12-08T02:47:29.300Z,1.04
2022-12-08T02:48:29.447Z,1.04
2022-12-08T02:49:29.602Z,1.04
2022-12-08T02:50:29.720Z,1.04
2022-12-08T02:51:29.856Z,1.04
2022-12-08T02:52:30.003Z,1.04
2022-12-08T02:53:30.980Z,1.04
2022-12-08T02:54:30.300Z,1.04
2022-12-08T02:55:30.451Z,1.04
2022-12-08T02:56:30.615Z,1.04
2022-12-08T02:57:30.710Z,1.04
2022-12-08T02:58:30.861Z,1.04
2022-12-08T02:59:31.010Z,1.04
2022-12-08T03:00:31.667Z,1.04
2022-12-08T03:01:31.369Z,1.04
2022-12-08T03:02:31.479Z,1.04
2022-12-08T03:03:31.569Z,1.04
2022-12-08T03:04:31.717Z,1.04
2022-12-08T03:05:31.878Z,1.04
2022-12-08T03:06:32.019Z,1.04
2022-12-08T03:07:32.201Z,1.04
2022-12-08T03:08:32.340Z,1.04
2022-12-08T03:09:32.427Z,1.04
2022-12-08T03:10:32.584Z,1.04
2022-12-08T03:11:32.726Z,1.04
2022-12-08T03:12:32.897Z,1.04
2022-12-08T03:13:33.006Z,1.04
2022-12-08T03:14:33.688Z,1.04
2022-12-08T03:15:33.307Z,1.04
2022-12-08T03:16:33.436Z,1.04
2022-12-08T03:17:33.585Z,1.04
2022-12-08T03:18:33.743Z,1.04
2022-12-08T03:19:33.882Z,1.04
2022-12-08T03:20:33.991Z,1.04
2022-12-08T03:21:34.139Z,1.04
2022-12-08T03:22:34.258Z,1.04
2022-12-08T03:23:34.391Z,1.04
2022-12-08T03:24:34.560Z,1.04
2022-12-08T03:25:34.740Z,1.04
2022-12-08T03:26:34.851Z,1.04
2022-12-08T03:27:34.997Z,1.04
2022-12-08T03:28:35.097Z,1.04
2022-12-08T03:29:35.781Z,1.04
2022-12-08T03:30:35.411Z,1.04
2022-12-08T03:31:35.625Z,1.04
2022-12-08T03:32:35.713Z,1.04
2022-12-08T03:33:35.866Z,1.04
2022-12-08T03:34:35.994Z,1.04
2022-12-08T03:35:36.080Z,1.04
2022-12-08T03:36:36.166Z,1.04
2022-12-08T03:37:36.316Z,1.04
2022-12-08T03:38:36.467Z,1.04
2022-12-08T03:39:36.618Z,1.04
2022-12-08T03:40:36.722Z,1.04
2022-12-08T03:41:36.880Z,1.04
2022-12-08T03:42:37.031Z,1.04
2022-12-08T03:43:37.182Z,1.04
2022-12-08T03:44:37.808Z,1.04
2022-12-08T03:45:37.474Z,1.04
2022-12-08T03:46:38.969Z,1.04
2022-12-08T03:47:37.742Z,1.04
2022-12-08T03:48:37.884Z,1.04
2022-12-08T03:49:38.037Z,1.04
2022-12-08T03:50:38.186Z,1.04
2022-12-08T03:51:38.295Z,1.04
2022-12-08T03:52:38.444Z,1.04
2022-12-08T03:53:38.620Z,1.04
2022-12-08T03:54:38.732Z,1.04
2022-12-08T03:55:38.854Z,1.04
2022-12-08T03:56:38.939Z,1.04
2022-12-08T03:57:39.100Z,1.04
2022-12-08T03:58:39.232Z,1.04
2022-12-08T03:59:39.963Z,1.04
2022-12-08T04:00:39.570Z,1.04
2022-12-08T04:01:39.751Z,1.04
2022-12-08T04:02:39.930Z,1.04
2022-12-08T04:03:40.008Z,1.04
2022-12-08T04:04:40.160Z,1.04
2022-12-08T04:05:40.311Z,1.04
2022-12-08T04:06:40.458Z,1.04
2022-12-08T04:07:40.682Z,1.04
2022-12-08T04:08:40.772Z,1.04
2022-12-08T04:09:40.922Z,1.04
2022-12-08T04:10:41.089Z,1.04
2022-12-08T04:11:41.239Z,1.04
2022-12-08T04:12:41.327Z,1.04
2022-12-08T04:13:41.433Z,1.04
2022-12-08T04:14:42.151Z,1.04
2022-12-08T04:15:41.723Z,1.04
2022-12-08T04:16:41.862Z,1.04
2022-12-08T04:17:41.991Z,1.04
2022-12-08T04:18:42.135Z,1.04
2022-12-08T04:19:42.285Z,1.04
2022-12-08T04:20:42.387Z,1.04
2022-12-08T04:21:42.539Z,1.04
2022-12-08T04:22:42.710Z,1.04
2022-12-08T04:23:42.849Z,1.04
2022-12-08T04:24:42.989Z,1.04
2022-12-08T04:25:43.145Z,1.04
2022-12-08T04:26:43.287Z,1.04
2022-12-08T04:27:43.381Z,1.04
2022-12-08T04:28:43.551Z,1.04
2022-12-08T04:29:44.251Z,1.04
2022-12-08T04:30:43.835Z,1.04
2022-12-08T04:31:44.016Z,1.04
2022-12-08T04:32:47.319Z,1.04
2022-12-08T04:33:44.255Z,1.04
2022-12-08T04:34:44.418Z,1.04
2022-12-08T04:35:44.573Z,1.04
2022-12-08T04:36:44.656Z,1.04
2022-12-08T04:37:44.806Z,1.04
2022-12-08T04:38:44.966Z,1.04
2022-12-08T04:39:45.111Z,1.04
2022-12-08T04:40:45.281Z,1.04
2022-12-08T04:41:45.415Z,1.04
2022-12-08T04:42:45.521Z,1.04
2022-12-08T04:43:45.671Z,1.04
2022-12-08T04:44:46.326Z,1.04
2022-12-08T04:45:45.964Z,1.04
2022-12-08T04:46:46.150Z,1.04
2022-12-08T04:47:46.236Z,1.04
2022-12-08T04:48:46.379Z,1.04
2022-12-08T04:49:46.529Z,1.04
2022-12-08T04:50:46.686Z,1.04
2022-12-08T04:51:46.861Z,1.04
2022-12-08T04:52:46.985Z,1.04
2022-12-08T04:53:47.299Z,1.04
2022-12-08T04:54:47.292Z,1.04
2022-12-08T04:55:47.439Z,1.04
2022-12-08T04:56:47.597Z,1.04
2022-12-08T04:57:47.741Z,1.04
2022-12-08T04:58:47.891Z,1.04
2022-12-08T04:59:48.470Z,1.04
2022-12-08T05:00:48.139Z,1.04
2022-12-08T05:01:48.497Z,1.04
2022-12-08T05:02:48.503Z,1.04
2022-12-08T05:03:48.600Z,1.04
2022-12-08T05:04:48.698Z,1.04
2022-12-08T05:05:48.852Z,1.04
2022-12-08T05:06:49.003Z,1.04
2022-12-08T05:07:49.204Z,1.04
2022-12-08T05:08:49.259Z,1.04
2022-12-08T05:09:49.406Z,1.04
2022-12-08T05:10:49.548Z,1.04
2022-12-08T05:11:49.714Z,1.04
2022-12-08T05:12:49.806Z,1.04
2022-12-08T05:13:49.954Z,1.04
2022-12-08T05:14:50.740Z,1.04
2022-12-08T05:15:50.295Z,1.04
2022-12-08T05:16:50.514Z,1.04
2022-12-08T05:17:50.524Z,1.04
2022-12-08T05:18:50.622Z,1.04
2022-12-08T05:19:50.759Z,1.04
2022-12-08T05:20:50.921Z,1.04
2022-12-08T05:21:51.079Z,1.04
2022-12-08T05:22:51.216Z,1.04
2022-12-08T05:23:51.381Z,1.04
2022-12-08T05:24:51.522Z,1.04
2022-12-08T05:25:51.676Z,1.04
2022-12-08T05:26:51.779Z,1.04
2022-12-08T05:27:55.264Z,1.04
2022-12-08T05:28:52.082Z,1.04
2022-12-08T05:29:52.823Z,1.04
2022-12-08T05:30:52.371Z,1.04
2022-12-08T05:31:52.535Z,1.04
2022-12-08T05:32:52.647Z,1.04
2022-12-08T05:33:52.847Z,1.04
2022-12-08T05:34:52.884Z,1.04
2022-12-08T05:35:53.044Z,1.04
2022-12-08T05:36:53.194Z,1.04
2022-12-08T05:37:53.347Z,1.04
2022-12-08T05:38:53.514Z,1.04
2022-12-08T05:39:53.649Z,1.04
2022-12-08T05:40:53.807Z,1.04
2022-12-08T05:41:53.974Z,1.04
2022-12-08T05:42:54.072Z,1.04
2022-12-08T05:43:54.209Z,1.04
2022-12-08T05:44:54.494Z,1.04
2022-12-08T05:45:55.458Z,1.04
2022-12-08T05:46:54.873Z,1.04
2022-12-08T05:47:55.475Z,1.04
2022-12-08T05:48:55.158Z,1.04
2022-12-08T05:49:55.321Z,1.04
2022-12-08T05:50:55.468Z,1.04
2022-12-08T05:51:55.627Z,1.04
2022-12-08T05:52:55.773Z,1.04
2022-12-08T05:53:55.866Z,1.04
2022-12-08T05:54:56.024Z,1.04
2022-12-08T05:55:56.180Z,1.04
2022-12-08T05:56:56.289Z,1.04
2022-12-08T05:57:56.426Z,1.04
2022-12-08T05:58:56.571Z,1.04
2022-12-08T05:59:57.249Z,1.04
2022-12-08T06:00:56.888Z,1.04
2022-12-08T06:01:57.078Z,1.04
2022-12-08T06:02:57.225Z,1.04
2022-12-08T06:03:57.293Z,1.04
2022-12-08T06:04:57.440Z,1.04
2022-12-08T06:05:57.590Z,1.04
2022-12-08T06:06:57.683Z,1.04
2022-12-08T06:07:57.891Z,1.04
2022-12-08T06:08:57.985Z,1.04
2022-12-08T06:09:58.096Z,1.04
2022-12-08T06:10:58.244Z,1.04
2022-12-08T06:11:58.964Z,1.04
2022-12-08T06:12:58.491Z,1.04
2022-12-08T06:13:58.624Z,1.04
2022-12-08T06:14:59.315Z,1.04
2022-12-08T06:15:58.887Z,1.04
2022-12-08T06:16:59.091Z,1.04
2022-12-08T06:17:59.209Z,1.04
2022-12-08T06:18:59.355Z,1.04
2022-12-08T06:19:59.469Z,2
2022-12-08T06:20:59.606Z,2
2022-12-08T06:21:59.761Z,2
2022-12-08T06:22:59.905Z,2
2022-12-08T06:24:00.088Z,2
2022-12-08T06:25:00.256Z,2
2022-12-08T06:26:00.317Z,2
2022-12-08T06:27:00.475Z,3.04
2022-12-08T06:28:00.623Z,4
2022-12-08T06:29:00.787Z,4
2022-12-08T06:30:01.798Z,5.04
2022-12-08T06:31:01.057Z,5.04
2022-12-08T06:32:01.301Z,6
2022-12-08T06:33:01.387Z,5.04
2022-12-08T06:34:01.521Z,5.04
2022-12-08T06:35:01.644Z,6
2022-12-08T06:36:01.773Z,7.04
2022-12-08T06:37:01.879Z,8
2022-12-08T06:38:02.036Z,11.04
2022-12-08T06:39:02.182Z,15.04
2022-12-08T06:40:03.191Z,18
2022-12-08T06:41:02.483Z,21.04
2022-12-08T06:42:02.593Z,28
2022-12-08T06:43:02.758Z,37.04
2022-12-08T06:44:02.892Z,46
2022-12-08T06:45:03.587Z,51.04
2022-12-08T06:46:03.235Z,59.04
2022-12-08T06:47:03.285Z,71.04
2022-12-08T06:48:03.468Z,87.04
2022-12-08T06:49:03.598Z,119.04
2022-12-08T06:50:04.079Z,134
2022-12-08T06:51:03.925Z,138
2022-12-08T06:52:04.046Z,160
2022-12-08T06:53:05.563Z,196
2022-12-08T06:54:04.340Z,234.08
2022-12-08T06:55:04.502Z,254.08
2022-12-08T06:56:04.674Z,270.08
2022-12-08T06:57:04.806Z,309.12
2022-12-08T06:58:04.923Z,338.24
2022-12-08T06:59:05.063Z,368
2022-12-08T07:00:05.976Z,403.2
2022-12-08T07:01:05.515Z,431.04
2022-12-08T07:02:05.521Z,456
2022-12-08T07:03:05.567Z,486.08
2022-12-08T07:04:05.723Z,512
2022-12-08T07:05:05.881Z,543.04
2022-12-08T07:06:05.967Z,571.2
2022-12-08T07:07:06.123Z,601.28
2022-12-08T07:08:06.314Z,637.12
2022-12-08T07:09:06.453Z,668.16
2022-12-08T07:10:06.895Z,695.04
2022-12-08T07:11:06.725Z,730.24
2022-12-08T07:12:06.879Z,761.6
2022-12-08T07:13:07.028Z,789.12
2022-12-08T07:14:07.214Z,823.04
2022-12-08T07:15:07.853Z,852.48
2022-12-08T07:16:07.478Z,883.2
2022-12-08T07:17:07.698Z,910.08
2022-12-08T07:18:07.795Z,934.4
2022-12-08T07:19:07.956Z,962.56
2022-12-08T07:20:08.143Z,982.4
2022-12-08T07:21:08.252Z,1011.2
2022-12-08T07:22:08.394Z,1037.44
2022-12-08T07:23:08.552Z,1057.28
2022-12-08T07:24:08.699Z,1084.16
2022-12-08T07:25:08.841Z,1108.48
2022-12-08T07:26:08.998Z,1139.2
2022-12-08T07:27:09.124Z,1181.44
2022-12-08T07:28:09.205Z,1216
2022-12-08T07:29:09.352Z,1247.36
2022-12-08T07:30:10.000Z,1274.24
2022-12-08T07:31:09.713Z,1291.52
2022-12-08T07:32:09.768Z,1381.12
2022-12-08T07:33:09.907Z,1425.92
2022-12-08T07:34:10.049Z,1450.24
2022-12-08T07:35:10.208Z,1443.84
2022-12-08T07:36:10.387Z,1406.72
2022-12-08T07:37:10.525Z,1370.88
2022-12-08T07:38:10.737Z,1326.08
2022-12-08T07:39:11.443Z,1310.08
2022-12-08T07:40:10.990Z,1317.12
2022-12-08T07:41:11.135Z,1349.12
2022-12-08T07:42:11.270Z,1387.52
2022-12-08T07:43:11.431Z,1437.44
2022-12-08T07:44:11.530Z,1546.24
2022-12-08T07:45:12.215Z,1664
2022-12-08T07:46:11.889Z,1811.2
2022-12-08T07:47:11.979Z,1934.08
2022-12-08T07:48:12.126Z,2106.88
2022-12-08T07:49:12.279Z,2233.6
2022-12-08T07:50:12.378Z,2361.6
2022-12-08T07:51:12.531Z,2489.6
2022-12-08T07:52:12.694Z,2538.24
2022-12-08T07:53:12.845Z,2639.36
2022-12-08T07:54:12.945Z,2723.84
2022-12-08T07:55:13.088Z,2810.88
2022-12-08T07:56:13.204Z,2918.4
2022-12-08T07:57:13.342Z,2995.2
2022-12-08T07:58:13.683Z,3082.24
2022-12-08T07:59:13.786Z,3179.52
2022-12-08T08:00:14.622Z,3279.36
2022-12-08T08:01:14.173Z,3425.28
2022-12-08T08:02:23.930Z,3571.2
2022-12-08T08:03:14.298Z,3704.32
2022-12-08T08:04:14.386Z,3975.68
2022-12-08T08:05:14.504Z,4349.44
2022-12-08T08:06:14.677Z,4646.4
2022-12-08T08:07:14.807Z,5560.32
2022-12-08T08:08:15.016Z,4989.44
2022-12-08T08:09:15.119Z,5171.2
2022-12-08T08:10:15.211Z,5473.28
2022-12-08T08:11:20.725Z,5806.08
2022-12-08T08:13:15.610Z,6016
2022-12-08T08:14:15.773Z,6282.24
2022-12-08T08:15:16.417Z,7982.08
2022-12-08T08:16:16.177Z,9779.2
2022-12-08T08:17:16.337Z,9635.84
2022-12-08T08:18:16.338Z,8883.2
2022-12-08T08:19:16.468Z,9482.24
2022-12-08T08:20:16.629Z,10173.439
2022-12-08T08:21:43.603Z,10240
2022-12-08T08:22:16.954Z,10864.64
2022-12-08T08:23:17.103Z,10598.399
2022-12-08T08:24:17.269Z,11909.12
2022-12-08T08:25:17.384Z,11724.8
2022-12-08T08:26:17.545Z,11253.76
2022-12-08T08:27:17.685Z,10316.8
2022-12-08T08:28:17.857Z,11048.96
2022-12-08T08:29:18.003Z,10393.6
2022-12-08T08:30:20.881Z,9815.04
2022-12-08T08:31:18.263Z,12216.319
2022-12-08T08:32:18.967Z,10137.6
2022-12-08T08:33:18.490Z,9323.52
2022-12-08T08:34:18.589Z,7864.32
2022-12-08T08:35:18.773Z,7925.76
2022-12-08T08:36:18.902Z,7956.48
2022-12-08T08:37:19.070Z,7562.24
2022-12-08T08:38:19.205Z,7787.52
2022-12-08T08:39:19.365Z,7833.6
2022-12-08T08:40:19.511Z,8048.64
2022-12-08T08:41:19.653Z,7915.52
2022-12-08T08:42:19.766Z,7434.24
2022-12-08T08:43:19.924Z,7219.2
2022-12-08T08:44:20.066Z,6758.4
2022-12-08T08:45:20.787Z,6236.16
2022-12-08T08:46:20.384Z,5519.36
2022-12-08T08:47:20.463Z,5140.48
2022-12-08T08:48:20.574Z,5150.72
2022-12-08T08:49:20.725Z,5017.6
2022-12-08T08:50:20.867Z,4784.64
2022-12-08T08:51:20.981Z,4705.28
2022-12-08T08:52:21.128Z,4648.96
2022-12-08T08:53:21.268Z,4477.44
2022-12-08T08:54:21.371Z,4177.92
2022-12-08T08:55:21.548Z,3855.36
2022-12-08T08:56:21.631Z,3540.48
2022-12-08T08:57:25.440Z,3412.48
2022-12-08T08:58:21.934Z,3294.72
2022-12-08T08:59:22.076Z,3233.28
2022-12-08T09:00:22.806Z,3205.12
2022-12-08T09:01:22.475Z,2903.04
2022-12-08T09:02:22.566Z,2501.12
2022-12-08T09:03:22.631Z,2115.84
2022-12-08T09:04:22.877Z,1811.2
2022-12-08T09:05:22.883Z,1702.4
2022-12-08T09:06:23.156Z,1790.72
2022-12-08T09:07:23.299Z,1911.04
2022-12-08T09:08:23.442Z,2062.08
2022-12-08T09:09:23.488Z,2406.4
2022-12-08T09:10:23.662Z,2572.8
2022-12-08T09:11:23.820Z,2685.44
2022-12-08T09:12:23.969Z,3025.92
2022-12-08T09:13:24.105Z,3443.2
2022-12-08T09:14:24.279Z,3939.84
2022-12-08T09:15:24.958Z,4377.6
2022-12-08T09:16:24.663Z,4518.4
2022-12-08T09:17:24.652Z,4869.12
2022-12-08T09:18:24.797Z,5058.56
2022-12-08T09:19:24.963Z,5130.24
2022-12-08T09:20:25.142Z,5473.28
2022-12-08T09:21:25.261Z,5765.12
2022-12-08T09:22:25.409Z,5821.44
2022-12-08T09:23:28.283Z,5975.04
2022-12-08T09:24:25.823Z,6164.48
2022-12-08T09:25:25.932Z,6446.08
2022-12-08T09:26:26.091Z,6891.52
2022-12-08T09:27:26.222Z,6968.32
2022-12-08T09:28:26.386Z,6855.68
2022-12-08T09:29:31.175Z,6743.04
2022-12-08T09:30:26.680Z,6722.56
2022-12-08T09:31:26.835Z,6845.44
2022-12-08T09:32:26.882Z,7111.68
2022-12-08T09:33:27.023Z,7270.4
2022-12-08T09:34:27.187Z,7403.52
2022-12-08T09:35:27.343Z,7731.2
2022-12-08T09:36:27.501Z,7905.28
2022-12-08T09:37:27.638Z,7920.64
2022-12-08T09:38:27.811Z,7823.36
2022-12-08T09:39:27.997Z,7685.12
2022-12-08T09:40:28.093Z,7587.84
2022-12-08T09:41:32.198Z,7490.56
2022-12-08T09:42:28.414Z,7403.52
2022-12-08T09:43:28.547Z,7198.72
2022-12-08T09:44:28.644Z,6538.24
2022-12-08T09:45:29.366Z,5928.96
2022-12-08T09:46:29.029Z,5365.76
2022-12-08T09:47:33.915Z,4956.16
2022-12-08T09:48:29.258Z,4736
2022-12-08T09:49:29.404Z,4787.2
2022-12-08T09:50:29.553Z,4899.84
2022-12-08T09:51:29.695Z,4956.16
2022-12-08T09:52:29.805Z,5061.12
2022-12-08T09:53:35.206Z,5084.16
2022-12-08T09:54:30.116Z,4933.12
2022-12-08T09:55:30.209Z,4618.24
2022-12-08T09:56:30.391Z,4408.32
2022-12-08T09:57:30.517Z,4195.84
2022-12-08T09:58:30.678Z,4160
2022-12-08T09:59:30.872Z,4177.92
2022-12-08T10:00:31.456Z,4216.32
2022-12-08T10:01:31.139Z,4282.88
2022-12-08T10:02:31.219Z,4377.6
2022-12-08T10:03:31.327Z,4372.48
2022-12-08T10:04:31.549Z,4441.6
2022-12-08T10:05:31.713Z,4467.2
2022-12-08T10:06:31.782Z,4285.44
2022-12-08T10:07:31.952Z,4124.16
2022-12-08T10:08:32.166Z,4129.28
2022-12-08T10:09:32.239Z,4160
2022-12-08T10:10:32.380Z,4259.84
2022-12-08T10:11:32.534Z,4398.08
2022-12-08T10:12:32.679Z,4595.2
2022-12-08T10:13:32.890Z,4851.2
2022-12-08T10:14:32.979Z,5143.04
2022-12-08T10:15:33.608Z,5432.32
2022-12-08T10:16:33.308Z,5509.12
2022-12-08T10:17:33.356Z,5591.04
2022-12-08T10:18:33.491Z,5806.08
2022-12-08T10:19:33.644Z,5959.68
2022-12-08T10:20:33.801Z,6200.32
2022-12-08T10:21:33.950Z,6763.52
2022-12-08T10:22:34.104Z,7418.88
2022-12-08T10:23:34.275Z,7751.68
2022-12-08T10:24:35.018Z,7782.4
2022-12-08T10:25:34.544Z,7925.76
2022-12-08T10:26:34.726Z,8192
2022-12-08T10:27:34.862Z,8596.479
2022-12-08T10:28:37.733Z,8811.52
2022-12-08T10:29:35.835Z,8832
2022-12-08T10:30:35.322Z,8852.479
2022-12-08T10:31:35.541Z,9128.96
2022-12-08T10:32:35.620Z,9338.88
2022-12-08T10:33:35.768Z,9425.92
2022-12-08T10:34:35.860Z,9415.68
2022-12-08T10:35:36.023Z,9333.76
2022-12-08T10:36:36.185Z,9226.24
2022-12-08T10:37:36.328Z,9405.439
2022-12-08T10:38:36.488Z,9753.6
2022-12-08T10:39:36.625Z,10035.2
2022-12-08T10:40:40.686Z,10173.439
2022-12-08T10:41:36.932Z,10035.2
2022-12-08T10:42:37.073Z,9722.88
2022-12-08T10:43:37.225Z,9354.24
2022-12-08T10:44:37.994Z,9067.52
2022-12-08T10:45:37.525Z,8816.64
2022-12-08T10:46:37.786Z,8581.12
2022-12-08T10:47:37.837Z,8407.04
2022-12-08T10:48:37.985Z,8197.12
2022-12-08T10:49:38.089Z,7833.6
2022-12-08T10:50:38.237Z,7050.24
2022-12-08T10:51:38.388Z,6625.28
2022-12-08T10:52:38.553Z,6789.12
2022-12-08T10:53:38.702Z,7280.64
2022-12-08T10:54:38.846Z,8130.56
2022-12-08T10:55:38.995Z,8796.16
2022-12-08T10:56:39.096Z,8396.8
2022-12-08T10:57:39.255Z,7536.64
2022-12-08T10:58:39.406Z,6906.88
2022-12-08T10:59:40.205Z,6338.56
2022-12-08T11:00:39.731Z,5893.12
2022-12-08T11:01:39.987Z,5401.6
2022-12-08T11:02:40.023Z,4725.76
2022-12-08T11:03:40.085Z,4800
2022-12-08T11:04:40.213Z,5667.84
2022-12-08T11:05:40.331Z,6118.4
2022-12-08T11:06:40.462Z,5964.8
2022-12-08T11:07:40.655Z,5596.16
2022-12-08T11:08:40.772Z,5153.28
2022-12-08T11:09:40.914Z,5117.44
2022-12-08T11:10:41.066Z,5309.44
2022-12-08T11:11:41.214Z,5550.08
2022-12-08T11:12:41.384Z,5913.6
2022-12-08T11:13:41.518Z,6056.96
2022-12-08T11:14:42.240Z,6282.24
2022-12-08T11:15:42.373Z,6753.28
2022-12-08T11:16:41.932Z,6476.8
2022-12-08T11:17:41.972Z,5672.96
2022-12-08T11:18:42.148Z,5806.08
2022-12-08T11:19:42.292Z,6497.28
2022-12-08T11:20:42.393Z,6773.76
2022-12-08T11:21:42.534Z,7249.92
2022-12-08T11:22:42.695Z,7521.28
2022-12-08T11:23:42.859Z,7654.4
2022-12-08T11:24:42.984Z,8442.88
2022-12-08T11:25:43.146Z,9630.72
2022-12-08T11:26:43.304Z,10024.96
2022-12-08T11:27:43.473Z,9323.52
2022-12-08T11:28:43.600Z,8954.88
2022-12-08T11:29:44.321Z,8668.16
2022-12-08T11:30:43.909Z,8258.56
2022-12-08T11:31:44.072Z,8325.12
2022-12-08T11:32:44.153Z,7664.64
2022-12-08T11:33:44.306Z,7485.44
2022-12-08T11:34:44.464Z,7203.84
2022-12-08T11:35:44.599Z,7137.28
2022-12-08T11:36:44.755Z,7633.92
2022-12-08T11:37:44.904Z,7418.88
2022-12-08T11:38:45.012Z,7495.68
2022-12-08T11:39:45.123Z,7623.68
2022-12-08T11:40:45.270Z,7244.8
2022-12-08T11:41:45.361Z,7260.16
2022-12-08T11:42:45.514Z,6814.72
2022-12-08T11:43:45.671Z,5898.24
2022-12-08T11:44:46.340Z,5194.24
2022-12-08T11:45:46.020Z,4856.32
2022-12-08T11:46:46.114Z,5268.48
2022-12-08T11:47:48.113Z,6246.4
2022-12-08T11:48:46.428Z,6497.28
2022-12-08T11:50:47.751Z,6333.44
2022-12-08T11:51:46.862Z,6215.68
2022-12-08T11:52:47.549Z,6400
2022-12-08T11:53:47.173Z,6584.32
2022-12-08T11:54:47.338Z,6261.76
2022-12-08T11:55:49.813Z,6118.4
2022-12-08T11:56:47.574Z,5744.64
2022-12-08T11:57:47.736Z,5304.32
2022-12-08T11:58:47.830Z,5194.24
2022-12-08T11:59:48.559Z,4979.2
2022-12-08T12:00:48.123Z,4697.6
2022-12-08T12:01:48.342Z,4305.92
2022-12-08T12:02:48.519Z,4687.36
2022-12-08T12:03:48.674Z,4920.32
2022-12-08T12:04:49.315Z,4705.28
2022-12-08T12:06:09.021Z,5386.24
2022-12-08T12:06:54.514Z,6599.68
2022-12-08T12:07:49.136Z,5616.64
2022-12-08T12:08:49.240Z,5539.84
2022-12-08T12:09:49.396Z,6128.64
2022-12-08T12:10:49.548Z,5672.96
2022-12-08T12:11:49.690Z,5478.4
2022-12-08T12:12:49.907Z,5565.44
2022-12-08T12:13:50.575Z,5340.16
2022-12-08T12:14:50.657Z,5831.68
2022-12-08T12:15:50.256Z,6246.4
2022-12-08T12:16:50.438Z,6789.12
2022-12-08T12:17:51.142Z,7372.8
2022-12-08T12:18:50.707Z,6983.68
2022-12-08T12:19:50.852Z,6912
2022-12-08T12:20:51.013Z,6671.36
2022-12-08T12:21:51.165Z,5626.88
2022-12-08T12:22:51.312Z,5452.8
2022-12-08T12:23:51.414Z,5601.28
2022-12-08T12:24:51.576Z,5749.76
2022-12-08T12:25:51.709Z,5642.24
2022-12-08T12:26:51.864Z,5189.12
2022-12-08T12:27:57.050Z,5140.48
2022-12-08T12:28:52.131Z,5027.84
2022-12-08T12:29:55.850Z,4715.52
2022-12-08T12:30:52.475Z,4687.36
2022-12-08T12:31:52.518Z,4922.88
2022-12-08T12:32:52.673Z,4797.44
2022-12-08T12:33:52.835Z,4590.08
2022-12-08T12:34:52.973Z,4528.64
2022-12-08T12:35:53.133Z,4674.56
2022-12-08T12:36:53.278Z,4766.72
2022-12-08T12:37:53.377Z,4549.12
2022-12-08T12:38:53.535Z,4633.6
2022-12-08T12:39:53.698Z,4812.8
2022-12-08T12:40:53.836Z,4776.96
2022-12-08T12:41:53.952Z,4833.28
2022-12-08T12:42:54.030Z,5222.4
2022-12-08T12:43:54.128Z,5294.08
2022-12-08T12:44:54.239Z,5117.44
2022-12-08T12:45:54.460Z,4920.32
2022-12-08T12:46:54.533Z,4930.56
2022-12-08T12:47:56.795Z,4720.64
2022-12-08T12:48:54.815Z,5038.08
2022-12-08T12:49:54.939Z,5360.64
2022-12-08T12:50:55.133Z,5457.92
2022-12-08T12:51:55.274Z,5056